createdAt,value
2023-02-24T00:00:32.262Z,95716.47
2023-02-24T00:03:05.959Z,95705.09
2023-02-24T00:05:38.738Z,95708.84
2023-02-24T00:08:06.167Z,95713.44
2023-02-24T00:10:32.936Z,95726.81
2023-02-24T00:12:59.662Z,95711.25
2023-02-24T00:15:26.559Z,95696.22
2023-02-24T00:17:53.238Z,95703.75
2023-02-24T00:20:20.139Z,95698.84
2023-02-24T00:22:46.857Z,95691.97
2023-02-24T00:25:14.700Z,95687.56
2023-02-24T00:27:42.649Z,95687.31
2023-02-24T00:30:11.523Z,95688.44
2023-02-24T00:32:38.423Z,95687.75
2023-02-24T00:35:05.797Z,95682.06
2023-02-24T00:37:32.999Z,95681.00
2023-02-24T00:39:59.629Z,95684.75
2023-02-24T00:42:26.320Z,95674.63
2023-02-24T00:44:54.202Z,95674.47
2023-02-24T00:47:22.514Z,95674.63
2023-02-24T00:52:28.168Z,95669.66
2023-02-24T00:54:54.835Z,95671.03
2023-02-24T01:00:00.744Z,95656.41
2023-02-24T01:02:27.446Z,95665.75
2023-02-24T01:04:54.087Z,95663.78
2023-02-24T01:07:20.924Z,95665.91
2023-02-24T01:09:50.747Z,95653.00
2023-02-24T01:12:35.840Z,95656.63
2023-02-24T01:15:03.266Z,95654.94
2023-02-24T01:17:29.996Z,95649.53
2023-02-24T01:20:00.431Z,95646.22
2023-02-24T01:22:27.384Z,95637.03
2023-02-24T01:24:54.011Z,95632.41
2023-02-24T01:27:20.715Z,95627.44
2023-02-24T01:33:39.372Z,95616.59
2023-02-24T01:36:15.111Z,95617.97
2023-02-24T01:38:45.426Z,95615.72
2023-02-24T01:41:16.930Z,95605.31
2023-02-24T01:44:09.381Z,95607.25
2023-02-24T01:46:39.052Z,95609.06
2023-02-24T01:49:21.582Z,95602.81
2023-02-24T01:51:54.497Z,95600.19
2023-02-24T01:54:25.108Z,95603.66
2023-02-24T01:56:53.516Z,95605.84
2023-02-24T01:59:23.850Z,95602.38
2023-02-24T02:01:54.593Z,95601.25
2023-02-24T02:04:34.409Z,95606.53
2023-02-24T02:07:01.505Z,95607.94
2023-02-24T02:09:28.630Z,95613.91
2023-02-24T02:11:55.329Z,95606.97
2023-02-24T02:14:25.916Z,95603.66
2023-02-24T02:17:17.274Z,95604.50
2023-02-24T02:20:15.707Z,95607.50
2023-02-24T02:22:59.336Z,95610.44
2023-02-24T02:25:54.808Z,95617.53
2023-02-24T02:28:57.056Z,95606.13
2023-02-24T02:31:29.174Z,95610.44
2023-02-24T02:34:13.947Z,95611.97
2023-02-24T02:36:51.867Z,95613.22
2023-02-24T02:39:37.012Z,95608.78
2023-02-24T02:42:14.363Z,95606.28
2023-02-24T02:45:08.706Z,95604.63
2023-02-24T02:47:44.289Z,95606.28
2023-02-24T02:50:21.521Z,95607.13
2023-02-24T02:52:58.026Z,95604.50
2023-02-24T02:55:27.027Z,95605.16
2023-02-24T02:57:57.014Z,95595.56
2023-02-24T03:00:30.038Z,95594.91
2023-02-24T03:03:04.243Z,95594.91
2023-02-24T03:05:38.077Z,95607.13
2023-02-24T03:08:11.569Z,95592.13
2023-02-24T03:10:41.937Z,95605.16
2023-02-24T03:13:13.405Z,95608.94
2023-02-24T03:15:44.857Z,95593.94
2023-02-24T03:18:19.179Z,95599.50
2023-02-24T03:20:52.541Z,95599.50
2023-02-24T03:23:26.016Z,95607.41
2023-02-24T03:26:23.477Z,95591.88
2023-02-24T03:29:24.378Z,95592.84
2023-02-24T03:31:59.782Z,95596.84
2023-02-24T03:34:58.369Z,95588.13
2023-02-24T03:37:28.228Z,95581.03
2023-02-24T03:39:57.954Z,95579.50
2023-02-24T03:42:32.777Z,95573.56
2023-02-24T03:44:59.558Z,95584.41
2023-02-24T03:47:26.959Z,95569.84
2023-02-24T03:49:53.589Z,95575.25
2023-02-24T03:52:47.476Z,95575.25
2023-02-24T03:55:37.847Z,95571.97
2023-02-24T03:58:18.631Z,95570.28
2023-02-24T04:01:13.439Z,95574.19
2023-02-24T04:04:03.587Z,95570.88
2023-02-24T04:06:33.510Z,95571.00
2023-02-24T04:09:12.349Z,95568.00
2023-02-24T04:12:09.399Z,95562.84
2023-02-24T04:14:49.704Z,95561.63
2023-02-24T04:17:26.456Z,95565.94
2023-02-24T04:19:57.862Z,95561.50
2023-02-24T04:22:27.178Z,95566.19
2023-02-24T04:24:59.830Z,95561.88
2023-02-24T04:27:28.498Z,95562.59
2023-02-24T04:30:00.141Z,95560.66
2023-02-24T04:32:29.758Z,95554.44
2023-02-24T04:35:12.383Z,95552.06
2023-02-24T04:37:44.764Z,95556.66
2023-02-24T04:40:17.798Z,95561.78
2023-02-24T04:42:49.053Z,95554.84
2023-02-24T04:45:30.792Z,95550.41
2023-02-24T04:48:10.559Z,95545.16
2023-02-24T04:50:37.229Z,95551.25
2023-02-24T04:53:09.371Z,95537.09
2023-02-24T04:55:40.525Z,95534.31
2023-02-24T04:58:19.397Z,95530.00
2023-02-24T05:00:53.002Z,95528.22
2023-02-24T05:03:22.462Z,95516.81
2023-02-24T05:05:56.805Z,95529.28
2023-02-24T05:08:25.569Z,95517.91
2023-02-24T05:10:52.273Z,95520.00
2023-02-24T05:13:24.192Z,95512.91
2023-02-24T05:15:50.849Z,95508.47
2023-02-24T05:18:17.853Z,95518.19
2023-02-24T05:21:05.849Z,95508.75
2023-02-24T05:23:44.782Z,95511.94
2023-02-24T05:26:17.682Z,95510.97
2023-02-24T05:28:49.367Z,95502.22
2023-02-24T05:31:22.212Z,95508.47
2023-02-24T05:33:57.818Z,95497.78
2023-02-24T05:36:27.796Z,95492.50
2023-02-24T05:38:59.577Z,95493.63
2023-02-24T05:41:35.972Z,95495.72
2023-02-24T05:44:08.581Z,95492.56
2023-02-24T05:46:38.644Z,95491.19
2023-02-24T05:49:14.395Z,95490.97
2023-02-24T05:51:54.665Z,95489.72
2023-02-24T05:54:30.674Z,95494.63
2023-02-24T05:57:03.426Z,95495.84
2023-02-24T05:59:33.566Z,95496.84
2023-02-24T06:02:07.379Z,95497.81
2023-02-24T06:04:45.942Z,95505.88
2023-02-24T06:07:25.066Z,95507.97
2023-02-24T06:09:57.837Z,95510.59
2023-02-24T06:12:30.995Z,95505.63
2023-02-24T06:14:58.399Z,95493.13
2023-02-24T06:17:25.708Z,95497.44
2023-02-24T06:19:53.840Z,95503.41
2023-02-24T06:22:23.174Z,95495.03
2023-02-24T06:24:50.206Z,95494.50
2023-02-24T06:27:19.233Z,95497.00
2023-02-24T06:29:50.206Z,95495.84
2023-02-24T06:32:22.346Z,95503.50
2023-02-24T06:34:49.365Z,95491.13
2023-02-24T06:37:16.606Z,95498.88
2023-02-24T06:39:43.565Z,95489.44
2023-02-24T06:42:12.011Z,95487.47
2023-02-24T06:44:40.494Z,95487.72
2023-02-24T06:47:11.059Z,95483.66
2023-02-24T06:49:37.789Z,95482.13
2023-02-24T06:52:04.893Z,95478.72
2023-02-24T06:54:36.039Z,95478.94
2023-02-24T06:57:03.849Z,95470.06
2023-02-24T06:59:31.222Z,95473.09
2023-02-24T07:01:59.968Z,95467.19
2023-02-24T07:04:28.890Z,95466.59
2023-02-24T07:06:58.139Z,95468.94
2023-02-24T07:09:26.653Z,95473.84
2023-02-24T07:11:56.131Z,95470.81
2023-02-24T07:14:25.519Z,95468.34
2023-02-24T07:16:54.604Z,95471.44
2023-02-24T07:19:25.742Z,95469.63
2023-02-24T07:22:03.305Z,95473.38
2023-02-24T07:24:36.924Z,95476.09
2023-02-24T07:27:07.571Z,95474.69
2023-02-24T07:29:35.575Z,95470.59
2023-02-24T07:32:05.816Z,95458.97
2023-02-24T07:34:33.973Z,95464.94
2023-02-24T07:37:06.655Z,95460.16
2023-02-24T07:39:34.278Z,95459.13
2023-02-24T07:42:00.926Z,95459.41
2023-02-24T07:44:29.404Z,95461.44
2023-02-24T07:46:59.246Z,95453.19
2023-02-24T07:49:28.048Z,95446.59
2023-02-24T07:51:57.848Z,95447.63
2023-02-24T07:54:27.362Z,95438.16
2023-02-24T07:56:57.107Z,95429.03
2023-02-24T07:59:29.736Z,95427.69
2023-02-24T08:01:57.149Z,95415.69
2023-02-24T08:04:30.169Z,95409.00
2023-02-24T08:06:58.962Z,95413.56
2023-02-24T08:09:46.647Z,95399.53
2023-02-24T08:12:21.866Z,95396.38
2023-02-24T08:14:51.759Z,95392.66
2023-02-24T08:17:26.787Z,95394.56
2023-02-24T08:20:15.724Z,95390.91
2023-02-24T08:22:46.722Z,95387.41
2023-02-24T08:25:19.308Z,95379.91
2023-02-24T08:28:06.875Z,95376.16
2023-02-24T08:30:39.173Z,95380.63
2023-02-24T08:33:09.502Z,95379.63
2023-02-24T08:35:44.732Z,95370.38
2023-02-24T08:38:20.940Z,95371.66
2023-02-24T08:40:52.494Z,95368.47
2023-02-24T08:43:33.163Z,95364.91
2023-02-24T08:46:21.609Z,95357.94
2023-02-24T08:48:49.770Z,95354.19
2023-02-24T08:51:23.226Z,95356.50
2023-02-24T08:53:55.832Z,95349.88
2023-02-24T08:56:25.126Z,95355.16
2023-02-24T08:59:07.832Z,95352.41
2023-02-24T09:01:39.762Z,95344.38
2023-02-24T09:04:09.859Z,95336.06
2023-02-24T09:07:10.847Z,95335.97
2023-02-24T09:09:42.300Z,95330.63
2023-02-24T09:12:12.569Z,95327.50
2023-02-24T09:14:39.245Z,95322.94
2023-02-24T09:17:11.670Z,95322.97
2023-02-24T09:19:47.838Z,95324.50
2023-02-24T09:22:32.380Z,95320.88
2023-02-24T09:25:18.133Z,95315.13
2023-02-24T09:28:09.174Z,95313.22
2023-02-24T09:30:55.816Z,95302.84
2023-02-24T09:33:29.864Z,95295.47
2023-02-24T09:36:12.918Z,95283.19
2023-02-24T09:39:02.001Z,95281.16
2023-02-24T09:42:18.094Z,95287.94
2023-02-24T09:44:52.874Z,95280.78
2023-02-24T09:47:39.726Z,95279.13
2023-02-24T09:50:40.608Z,95273.78
2023-02-24T09:53:17.580Z,95269.06
2023-02-24T09:56:00.336Z,95267.41
2023-02-24T09:58:44.106Z,95261.22
2023-02-24T10:01:43.094Z,95257.75
2023-02-24T10:04:49.254Z,95262.06
2023-02-24T10:07:22.861Z,95260.84
2023-02-24T10:10:26.131Z,95263.31
2023-02-24T10:13:30.448Z,95261.03
2023-02-24T10:16:06.116Z,95248.63
2023-02-24T10:18:33.276Z,95245.50
2023-02-24T10:21:18.524Z,95241.44
2023-02-24T10:24:05.683Z,95239.78
2023-02-24T10:27:01.277Z,95231.06
2023-02-24T10:30:04.388Z,95228.13
2023-02-24T10:32:34.017Z,95226.06
2023-02-24T10:35:03.814Z,95215.72
2023-02-24T10:37:30.503Z,95220.16
2023-02-24T10:40:13.121Z,95214.22
2023-02-24T10:42:48.903Z,95208.34
2023-02-24T10:45:24.548Z,95200.56
2023-02-24T10:47:57.199Z,95194.63
2023-02-24T10:50:24.254Z,95190.78
2023-02-24T10:52:57.319Z,95183.97
2023-02-24T10:55:39.313Z,95176.78
2023-02-24T10:58:07.380Z,95157.28
2023-02-24T11:01:01.153Z,95150.00
2023-02-24T11:03:46.532Z,95148.63
2023-02-24T11:06:42.070Z,95136.44
2023-02-24T11:09:18.676Z,95133.69
2023-02-24T11:12:05.574Z,95138.03
2023-02-24T11:14:58.289Z,95134.97
2023-02-24T11:17:28.108Z,95128.19
2023-02-24T11:20:01.003Z,95125.53
2023-02-24T11:22:37.789Z,95114.28
2023-02-24T11:25:14.504Z,95108.47
2023-02-24T11:27:43.160Z,95102.44
2023-02-24T11:30:25.829Z,95098.47
2023-02-24T11:33:13.450Z,95101.06
2023-02-24T11:36:05.238Z,95094.97
2023-02-24T11:38:44.794Z,95088.34
2023-02-24T11:41:27.842Z,95083.56
2023-02-24T11:44:28.386Z,95066.72
2023-02-24T11:47:00.752Z,95064.09
2023-02-24T11:49:31.712Z,95055.75
2023-02-24T11:52:01.085Z,95057.94
2023-02-24T11:54:37.634Z,95048.28
2023-02-24T11:57:11.342Z,95041.00
2023-02-24T11:59:45.522Z,95042.88
2023-02-24T12:02:44.331Z,95027.50
2023-02-24T12:05:17.010Z,95029.19
2023-02-24T12:07:52.613Z,95013.53
2023-02-24T12:10:25.417Z,95015.41
2023-02-24T12:13:27.676Z,95002.69
2023-02-24T12:16:03.200Z,94996.81
2023-02-24T12:18:34.354Z,94990.91
2023-02-24T12:21:10.155Z,94988.84
2023-02-24T12:23:48.488Z,94986.91
2023-02-24T12:26:24.286Z,94982.56
2023-02-24T12:29:03.187Z,94981.34
2023-02-24T12:31:45.851Z,94977.09
2023-02-24T12:34:36.046Z,94971.72
2023-02-24T12:37:26.413Z,94970.75
2023-02-24T12:40:11.723Z,94963.47
2023-02-24T12:43:02.327Z,94957.41
2023-02-24T12:45:41.214Z,94956.75
2023-02-24T12:48:08.016Z,94949.75
2023-02-24T12:50:53.017Z,94946.22
2023-02-24T12:53:58.462Z,94942.97
2023-02-24T12:56:31.759Z,94943.47
2023-02-24T12:59:05.579Z,94943.66
2023-02-24T13:01:40.940Z,94930.44
2023-02-24T13:04:48.264Z,94922.88
2023-02-24T13:07:39.015Z,94924.25
2023-02-24T13:10:18.946Z,94910.50
2023-02-24T13:13:02.185Z,94909.13
2023-02-24T13:15:32.424Z,94904.75
2023-02-24T13:17:59.360Z,94905.34
2023-02-24T13:20:27.704Z,94898.78
2023-02-24T13:22:55.246Z,94899.47
2023-02-24T13:25:30.049Z,94900.16
2023-02-24T13:28:01.867Z,94904.66
2023-02-24T13:30:59.285Z,94898.16
2023-02-24T13:33:48.511Z,94889.22
2023-02-24T13:36:21.780Z,94884.28
2023-02-24T13:38:51.495Z,94877.16
2023-02-24T13:41:27.230Z,94881.47
2023-02-24T13:44:01.053Z,94878.94
2023-02-24T13:46:50.618Z,94874.88
2023-02-24T13:49:29.234Z,94877.44
2023-02-24T13:52:32.728Z,94862.28
2023-02-24T13:55:08.621Z,94865.69
2023-02-24T13:57:53.843Z,94858.88
2023-02-24T14:00:22.064Z,94855.13
2023-02-24T14:02:53.021Z,94862.47
2023-02-24T14:05:27.616Z,94852.44
2023-02-24T14:07:55.808Z,94857.91
2023-02-24T14:10:29.931Z,94866.72
2023-02-24T14:13:16.418Z,94864.34
2023-02-24T14:15:46.072Z,94862.28
2023-02-24T14:18:33.055Z,94867.31
2023-02-24T14:20:59.758Z,94864.97
2023-02-24T14:23:29.479Z,94852.25
2023-02-24T14:26:08.276Z,94850.88
2023-02-24T14:28:37.480Z,94847.84
2023-02-24T14:31:10.811Z,94847.06
2023-02-24T14:33:39.726Z,94849.59
2023-02-24T14:36:14.432Z,94847.59
2023-02-24T14:38:41.444Z,94850.28
2023-02-24T14:41:20.642Z,94848.03
2023-02-24T14:43:47.259Z,94839.22
2023-02-24T14:46:13.978Z,94837.59
2023-02-24T14:48:40.688Z,94832.91
2023-02-24T14:51:22.906Z,94830.44
2023-02-24T14:53:53.387Z,94827.16
2023-02-24T14:56:23.850Z,94820.38
2023-02-24T14:58:58.058Z,94838.69
2023-02-24T15:01:33.596Z,94828.03
2023-02-24T15:04:11.282Z,94817.16
2023-02-24T15:06:41.086Z,94819.41
2023-02-24T15:09:16.037Z,94814.50
2023-02-24T15:11:43.077Z,94814.53
2023-02-24T15:14:22.037Z,94817.19
2023-02-24T15:16:53.129Z,94816.81
2023-02-24T15:19:37.873Z,94817.63
2023-02-24T15:22:20.816Z,94815.78
2023-02-24T15:24:47.897Z,94814.97
2023-02-24T15:27:14.508Z,94821.53
2023-02-24T15:29:42.456Z,94817.88
2023-02-24T15:32:21.598Z,94819.31
2023-02-24T15:34:48.419Z,94815.00
2023-02-24T15:37:28.620Z,94810.28
2023-02-24T15:40:08.257Z,94802.69
2023-02-24T15:42:35.634Z,94801.69
2023-02-24T15:45:23.016Z,94806.63
2023-02-24T15:47:56.682Z,94800.66
2023-02-24T15:50:24.084Z,94799.00
2023-02-24T15:52:51.112Z,94800.25
2023-02-24T15:55:19.997Z,94799.38
2023-02-24T15:57:48.614Z,94789.97
2023-02-24T16:00:18.339Z,94789.78
2023-02-24T16:02:45.805Z,94785.28
2023-02-24T16:05:13.918Z,94785.06
2023-02-24T16:07:43.376Z,94792.41
2023-02-24T16:10:25.777Z,94785.84
2023-02-24T16:12:56.093Z,94780.91
2023-02-24T16:15:27.058Z,94782.16
2023-02-24T16:17:54.388Z,94780.09
2023-02-24T16:20:31.606Z,94770.06
2023-02-24T16:23:00.254Z,94761.25
2023-02-24T16:25:29.245Z,94754.94
2023-02-24T16:27:58.675Z,94764.09
2023-02-24T16:30:30.424Z,94765.72
2023-02-24T16:32:58.801Z,94768.97
2023-02-24T16:35:26.857Z,94759.13
2023-02-24T16:37:54.124Z,94759.06
2023-02-24T16:40:28.046Z,94758.75
2023-02-24T16:42:54.694Z,94755.31
2023-02-24T16:45:25.843Z,94759.09
2023-02-24T16:47:54.224Z,94756.16
2023-02-24T16:50:24.430Z,94750.78
2023-02-24T16:52:51.107Z,94753.41
2023-02-24T16:55:18.646Z,94753.75
2023-02-24T16:57:45.293Z,94756.56
2023-02-24T17:00:14.354Z,94746.69
2023-02-24T17:02:43.080Z,94740.91
2023-02-24T17:05:21.808Z,94737.25
2023-02-24T17:07:50.992Z,94738.41
2023-02-24T17:10:19.141Z,94750.31
2023-02-24T17:12:46.433Z,94752.31
2023-02-24T17:15:15.762Z,94750.88
2023-02-24T17:17:42.998Z,94760.09
2023-02-24T17:20:13.449Z,94758.41
2023-02-24T17:22:40.138Z,94766.09
2023-02-24T17:25:07.367Z,94758.69
2023-02-24T17:27:34.196Z,94762.94
2023-02-24T17:30:00.828Z,94762.63
2023-02-24T17:32:27.649Z,94765.56
2023-02-24T17:34:54.493Z,94766.97
2023-02-24T17:37:21.202Z,94769.53
2023-02-24T17:39:47.856Z,94774.22
2023-02-24T17:42:14.539Z,94776.22
2023-02-24T17:44:41.200Z,94780.22
2023-02-24T17:47:09.096Z,94777.31
2023-02-24T17:49:35.722Z,94780.72
2023-02-24T17:52:04.639Z,94777.78
2023-02-24T17:54:32.823Z,94775.22
2023-02-24T17:56:59.469Z,94771.38
2023-02-24T17:59:26.088Z,94762.84
2023-02-24T18:01:54.007Z,94757.56
2023-02-24T18:04:20.721Z,94758.22
2023-02-24T18:06:47.538Z,94761.84
2023-02-24T18:09:14.189Z,94760.34
2023-02-24T18:11:40.905Z,94762.75
2023-02-24T18:14:07.565Z,94757.91
2023-02-24T18:16:34.237Z,94754.72
2023-02-24T18:19:00.937Z,94749.91
2023-02-24T18:21:27.542Z,94750.72
2023-02-24T18:23:54.222Z,94756.44
2023-02-24T18:26:24.158Z,94755.09
2023-02-24T18:28:53.835Z,94754.91
2023-02-24T18:31:23.632Z,94745.44
2023-02-24T18:33:50.354Z,94741.81
2023-02-24T18:36:18.214Z,94750.63
2023-02-24T18:38:45.329Z,94747.66
2023-02-24T18:41:17.136Z,94740.91
2023-02-24T18:43:44.509Z,94739.63
2023-02-24T18:46:13.572Z,94741.44
2023-02-24T18:48:41.430Z,94736.53
2023-02-24T18:51:10.849Z,94735.06
2023-02-24T18:53:38.056Z,94739.69
2023-02-24T18:56:07.152Z,94740.03
2023-02-24T18:58:34.886Z,94737.75
2023-02-24T19:01:01.544Z,94731.16
2023-02-24T19:03:28.186Z,94737.44
2023-02-24T19:05:54.874Z,94748.53
2023-02-24T19:08:21.574Z,94735.19
2023-02-24T19:10:48.211Z,94735.91
2023-02-24T19:13:14.869Z,94736.94
2023-02-24T19:15:41.613Z,94717.63
2023-02-24T19:18:08.260Z,94728.06
2023-02-24T19:20:34.933Z,94722.13
2023-02-24T19:23:01.976Z,94714.75
2023-02-24T19:25:28.588Z,94713.56
2023-02-24T19:27:55.370Z,94700.75
2023-02-24T19:30:22.052Z,94700.16
2023-02-24T19:32:49.753Z,94700.63
2023-02-24T19:35:16.852Z,94701.69
2023-02-24T19:37:43.616Z,94704.88
2023-02-24T19:40:11.127Z,94703.69
2023-02-24T19:42:37.738Z,94710.13
2023-02-24T19:45:05.025Z,94709.66
2023-02-24T19:47:31.667Z,94711.78
2023-02-24T19:49:58.460Z,94704.22
2023-02-24T19:52:25.167Z,94700.28
2023-02-24T19:54:52.094Z,94700.63
2023-02-24T19:57:18.796Z,94700.81
2023-02-24T19:59:45.562Z,94698.31
2023-02-24T20:02:12.218Z,94702.94
2023-02-24T20:04:39.017Z,94705.75
2023-02-24T20:07:05.897Z,94704.28
2023-02-24T20:09:32.879Z,94699.03
2023-02-24T20:12:01.822Z,94693.59
2023-02-24T20:14:29.691Z,94694.78
2023-02-24T20:16:56.486Z,94696.41
2023-02-24T20:19:23.247Z,94695.59
2023-02-24T20:21:50.102Z,94695.09
2023-02-24T20:24:18.419Z,94689.53
2023-02-24T20:28:23.248Z,94681.94
2023-02-24T20:30:51.324Z,94676.66
2023-02-24T20:35:57.634Z,94678.66
2023-02-24T20:38:24.424Z,94673.72
2023-02-24T20:41:00.979Z,94670.44
2023-02-24T20:43:28.251Z,94674.22
2023-02-24T20:46:42.560Z,94664.66
2023-02-24T20:49:11.873Z,94662.72
2023-02-24T20:51:38.840Z,94663.53
2023-02-24T20:54:07.584Z,94661.53
2023-02-24T20:56:36.538Z,94649.38
2023-02-24T20:59:15.162Z,94651.34
2023-02-24T21:01:46.450Z,94640.81
2023-02-24T21:04:15.428Z,94645.25
2023-02-24T21:06:42.131Z,94643.94
2023-02-24T21:09:08.957Z,94638.50
2023-02-24T21:11:35.601Z,94637.03
2023-02-24T21:14:02.840Z,94634.72
2023-02-24T21:16:29.500Z,94639.47
2023-02-24T21:18:58.759Z,94635.69
2023-02-24T21:21:25.499Z,94643.59
2023-02-24T21:23:52.221Z,94634.19
2023-02-24T21:26:19.301Z,94630.25
2023-02-24T21:28:46.646Z,94634.50
2023-02-24T21:31:16.850Z,94628.59
2023-02-24T21:33:44.089Z,94630.88
2023-02-24T21:36:14.375Z,94639.09
2023-02-24T21:38:41.737Z,94635.94
2023-02-24T21:41:15.940Z,94638.75
2023-02-24T21:43:44.333Z,94641.53
2023-02-24T21:46:13.403Z,94626.19
2023-02-24T21:48:40.905Z,94636.41
2023-02-24T21:51:11.135Z,94636.41
2023-02-24T21:53:39.435Z,94630.84
2023-02-24T21:56:11.111Z,94628.84
2023-02-24T21:58:39.435Z,94620.63
2023-02-24T22:01:14.679Z,94619.00
2023-02-24T22:03:41.726Z,94619.00
2023-02-24T22:06:14.914Z,94614.19
2023-02-24T22:08:45.652Z,94617.47
2023-02-24T22:11:15.490Z,94617.28
2023-02-24T22:13:43.468Z,94617.28
2023-02-24T22:16:13.259Z,94613.69
2023-02-24T22:18:40.011Z,94610.53
2023-02-24T22:21:17.302Z,94593.94
2023-02-24T22:23:45.553Z,94592.66
2023-02-24T22:26:13.047Z,94593.94
2023-02-24T22:28:41.930Z,94593.91
2023-02-24T22:31:10.795Z,94601.16
2023-02-24T22:33:43.412Z,94596.06
2023-02-24T22:36:21.736Z,94597.84
2023-02-24T22:38:48.729Z,94596.34
2023-02-24T22:41:21.161Z,94586.66
2023-02-24T22:44:25.420Z,94584.47
2023-02-24T22:46:52.201Z,94574.81
2023-02-24T22:49:18.962Z,94573.16
2023-02-24T22:51:45.869Z,94566.25
2023-02-24T22:54:12.513Z,94571.34
2023-02-24T22:56:39.299Z,94572.75
2023-02-24T23:01:44.375Z,94554.00
2023-02-24T23:04:17.119Z,94551.03
2023-02-24T23:06:44.621Z,94542.88
2023-02-24T23:09:11.532Z,94543.50
2023-02-24T23:11:41.325Z,94543.50
2023-02-24T23:16:54.742Z,94530.78
2023-02-24T23:19:22.973Z,94523.38
2023-02-24T23:21:54.311Z,94535.13
2023-02-24T23:24:22.377Z,94523.78
2023-02-24T23:26:57.847Z,94513.41
2023-02-24T23:29:26.694Z,94506.22
2023-02-24T23:31:53.679Z,94504.75
2023-02-24T23:34:20.499Z,94505.75
2023-02-24T23:36:48.076Z,94496.00
2023-02-24T23:39:18.410Z,94489.09
2023-02-24T23:41:45.027Z,94490.06
2023-02-24T23:44:12.571Z,94498.25
2023-02-24T23:46:39.544Z,94494.81
2023-02-24T23:49:06.221Z,94476.44
2023-02-24T23:51:46.970Z,94465.13
2023-02-24T23:54:14.804Z,94449.19
2023-02-24T23:56:41.526Z,94470.47
2023-02-24T23:59:08.178Z,94464.25
